sensor_id;sensor_type;location;lat;lon;timestamp;P1;durP1;ratioP1;P2;durP2;ratioP2
38557;SDS011;24333;42.626;23.308;2023-06-26T00:57:34;16.33;;;7.57;;
38557;SDS011;24333;42.626;23.308;2023-06-26T01:06:23;17.60;;;8.88;;
38557;SDS011;24333;42.626;23.308;2023-06-26T01:11:20;18.27;;;9.07;;
38557;SDS011;24333;42.626;23.308;2023-06-26T01:38:33;13.13;;;6.97;;
38557;SDS011;24333;42.626;23.308;2023-06-26T01:41:02;13.93;;;6.80;;
38557;SDS011;24333;42.626;23.308;2023-06-26T01:55:31;13.98;;;7.60;;
38557;SDS011;24333;42.626;23.308;2023-06-26T01:58:03;13.32;;;8.10;;
38557;SDS011;24333;42.626;23.308;2023-06-26T02:00:29;14.55;;;7.85;;
38557;SDS011;24333;42.626;23.308;2023-06-26T02:02:57;16.23;;;7.82;;
38557;SDS011;24333;42.626;23.308;2023-06-26T02:05:26;14.07;;;7.47;;
38557;SDS011;24333;42.626;23.308;2023-06-26T02:07:52;15.40;;;8.02;;
38557;SDS011;24333;42.626;23.308;2023-06-26T02:10:19;15.43;;;7.45;;
38557;SDS011;24333;42.626;23.308;2023-06-26T02:12:46;16.02;;;7.50;;
38557;SDS011;24333;42.626;23.308;2023-06-26T02:15:12;13.35;;;7.60;;
38557;SDS011;24333;42.626;23.308;2023-06-26T02:17:41;16.40;;;8.25;;
38557;SDS011;24333;42.626;23.308;2023-06-26T02:20:27;14.57;;;8.05;;
38557;SDS011;24333;42.626;23.308;2023-06-26T02:22:53;16.55;;;9.13;;
38557;SDS011;24333;42.626;23.308;2023-06-26T02:25:18;13.95;;;7.95;;
38557;SDS011;24333;42.626;23.308;2023-06-26T02:27:44;16.42;;;8.73;;
38557;SDS011;24333;42.626;23.308;2023-06-26T02:30:45;15.98;;;8.32;;
38557;SDS011;24333;42.626;23.308;2023-06-26T02:33:11;16.92;;;9.15;;
38557;SDS011;24333;42.626;23.308;2023-06-26T02:35:38;16.52;;;8.63;;
38557;SDS011;24333;42.626;23.308;2023-06-26T02:38:03;16.17;;;8.52;;
38557;SDS011;24333;42.626;23.308;2023-06-26T02:40:50;15.98;;;8.98;;
38557;SDS011;24333;42.626;23.308;2023-06-26T02:43:16;17.70;;;9.27;;
38557;SDS011;24333;42.626;23.308;2023-06-26T02:45:43;20.77;;;9.98;;
38557;SDS011;24333;42.626;23.308;2023-06-26T02:48:09;19.23;;;9.13;;
38557;SDS011;24333;42.626;23.308;2023-06-26T02:50:38;14.88;;;8.80;;
38557;SDS011;24333;42.626;23.308;2023-06-26T02:53:04;22.70;;;9.25;;
38557;SDS011;24333;42.626;23.308;2023-06-26T02:55:29;18.85;;;10.00;;
38557;SDS011;24333;42.626;23.308;2023-06-26T02:58:01;19.70;;;9.93;;
38557;SDS011;24333;42.626;23.308;2023-06-26T03:00:27;22.33;;;9.95;;
38557;SDS011;24333;42.626;23.308;2023-06-26T03:02:55;18.67;;;9.02;;
38557;SDS011;24333;42.626;23.308;2023-06-26T03:08:14;19.48;;;9.70;;
38557;SDS011;24333;42.626;23.308;2023-06-26T03:10:39;19.67;;;9.48;;
38557;SDS011;24333;42.626;23.308;2023-06-26T03:13:05;18.88;;;9.63;;
38557;SDS011;24333;42.626;23.308;2023-06-26T03:15:32;17.65;;;9.07;;
38557;SDS011;24333;42.626;23.308;2023-06-26T03:21:07;16.80;;;9.23;;
38557;SDS011;24333;42.626;23.308;2023-06-26T03:23:34;21.45;;;10.07;;
38557;SDS011;24333;42.626;23.308;2023-06-26T03:25:59;18.80;;;10.10;;
38557;SDS011;24333;42.626;23.308;2023-06-26T03:28:25;20.98;;;10.30;;
38557;SDS011;24333;42.626;23.308;2023-06-26T03:31:02;18.70;;;9.60;;
38557;SDS011;24333;42.626;23.308;2023-06-26T03:33:41;20.10;;;10.35;;
38557;SDS011;24333;42.626;23.308;2023-06-26T03:36:08;17.90;;;9.18;;
38557;SDS011;24333;42.626;23.308;2023-06-26T06:04:23;15.40;;;8.43;;
38557;SDS011;24333;42.626;23.308;2023-06-26T06:06:55;14.80;;;7.95;;
38557;SDS011;24333;42.626;23.308;2023-06-26T06:09:20;16.63;;;8.68;;
38557;SDS011;24333;42.626;23.308;2023-06-26T06:11:45;15.95;;;8.02;;
38557;SDS011;24333;42.626;23.308;2023-06-26T06:14:11;15.70;;;7.85;;
38557;SDS011;24333;42.626;23.308;2023-06-26T06:16:36;15.38;;;8.07;;
38557;SDS011;24333;42.626;23.308;2023-06-26T06:19:05;13.45;;;7.68;;
38557;SDS011;24333;42.626;23.308;2023-06-26T06:21:32;15.73;;;7.72;;
38557;SDS011;24333;42.626;23.308;2023-06-26T06:23:58;14.90;;;7.68;;
38557;SDS011;24333;42.626;23.308;2023-06-26T06:26:23;15.70;;;7.55;;
38557;SDS011;24333;42.626;23.308;2023-06-26T06:28:48;15.20;;;7.65;;
38557;SDS011;24333;42.626;23.308;2023-06-26T06:31:14;13.73;;;6.85;;
38557;SDS011;24333;42.626;23.308;2023-06-26T06:33:39;12.93;;;6.40;;
38557;SDS011;24333;42.626;23.308;2023-06-26T06:36:04;13.05;;;6.35;;
38557;SDS011;24333;42.626;23.308;2023-06-26T06:38:30;10.38;;;5.85;;
38557;SDS011;24333;42.626;23.308;2023-06-26T06:40:55;12.27;;;6.80;;
38557;SDS011;24333;42.626;23.308;2023-06-26T06:43:21;13.60;;;7.20;;
38557;SDS011;24333;42.626;23.308;2023-06-26T06:45:46;14.63;;;6.85;;
38557;SDS011;24333;42.626;23.308;2023-06-26T06:48:11;13.75;;;7.15;;
38557;SDS011;24333;42.626;23.308;2023-06-26T06:50:37;12.35;;;6.93;;
38557;SDS011;24333;42.626;23.308;2023-06-26T06:53:02;13.60;;;7.78;;
38557;SDS011;24333;42.626;23.308;2023-06-26T06:55:28;9.90;;;5.72;;
38557;SDS011;24333;42.626;23.308;2023-06-26T06:57:54;10.73;;;5.75;;
38557;SDS011;24333;42.626;23.308;2023-06-26T07:00:19;11.07;;;5.45;;
38557;SDS011;24333;42.626;23.308;2023-06-26T07:02:45;10.93;;;6.65;;
38557;SDS011;24333;42.626;23.308;2023-06-26T07:05:11;15.57;;;6.05;;
38557;SDS011;24333;42.626;23.308;2023-06-26T07:07:37;9.98;;;5.18;;
38557;SDS011;24333;42.626;23.308;2023-06-26T07:10:08;8.63;;;4.93;;
38557;SDS011;24333;42.626;23.308;2023-06-26T07:12:35;10.32;;;5.18;;
38557;SDS011;24333;42.626;23.308;2023-06-26T07:15:01;10.50;;;6.18;;
38557;SDS011;24333;42.626;23.308;2023-06-26T07:17:29;10.25;;;6.05;;
38557;SDS011;24333;42.626;23.308;2023-06-26T07:19:55;8.80;;;5.22;;
38557;SDS011;24333;42.626;23.308;2023-06-26T09:20:57;4.25;;;2.90;;
38557;SDS011;24333;42.626;23.308;2023-06-26T09:23:24;4.60;;;2.45;;
38557;SDS011;24333;42.626;23.308;2023-06-26T09:25:58;6.28;;;2.80;;
38557;SDS011;24333;42.626;23.308;2023-06-26T09:28:26;5.00;;;2.95;;
38557;SDS011;24333;42.626;23.308;2023-06-26T09:31:41;5.35;;;3.10;;
38557;SDS011;24333;42.626;23.308;2023-06-26T09:34:12;4.78;;;2.50;;
38557;SDS011;24333;42.626;23.308;2023-06-26T09:36:38;5.38;;;2.90;;
38557;SDS011;24333;42.626;23.308;2023-06-26T09:39:26;6.70;;;3.10;;
38557;SDS011;24333;42.626;23.308;2023-06-26T09:41:53;6.72;;;2.78;;
38557;SDS011;24333;42.626;23.308;2023-06-26T09:44:35;6.35;;;3.30;;
38557;SDS011;24333;42.626;23.308;2023-06-26T09:47:22;4.25;;;2.50;;
38557;SDS011;24333;42.626;23.308;2023-06-26T09:49:47;5.57;;;3.08;;
38557;SDS011;24333;42.626;23.308;2023-06-26T09:52:17;4.55;;;2.85;;
38557;SDS011;24333;42.626;23.308;2023-06-26T09:54:47;6.90;;;3.00;;
38557;SDS011;24333;42.626;23.308;2023-06-26T10:32:25;5.13;;;2.33;;
38557;SDS011;24333;42.626;23.308;2023-06-26T10:34:53;4.78;;;2.72;;
38557;SDS011;24333;42.626;23.308;2023-06-26T10:37:20;3.88;;;2.30;;
38557;SDS011;24333;42.626;23.308;2023-06-26T10:39:46;5.10;;;2.63;;
38557;SDS011;24333;42.626;23.308;2023-06-26T10:42:18;5.40;;;2.85;;
38557;SDS011;24333;42.626;23.308;2023-06-26T10:44:45;4.95;;;2.60;;
38557;SDS011;24333;42.626;23.308;2023-06-26T10:47:12;4.78;;;3.00;;
38557;SDS011;24333;42.626;23.308;2023-06-26T10:49:53;5.50;;;2.97;;
38557;SDS011;24333;42.626;23.308;2023-06-26T10:52:18;5.55;;;3.25;;
38557;SDS011;24333;42.626;23.308;2023-06-26T10:54:44;5.90;;;3.30;;
38557;SDS011;24333;42.626;23.308;2023-06-26T10:57:10;5.88;;;2.67;;
38557;SDS011;24333;42.626;23.308;2023-06-26T10:59:38;5.00;;;3.00;;
38557;SDS011;24333;42.626;23.308;2023-06-26T11:02:04;4.78;;;2.72;;
38557;SDS011;24333;42.626;23.308;2023-06-26T11:04:46;4.93;;;2.80;;
38557;SDS011;24333;42.626;23.308;2023-06-26T11:07:21;3.92;;;2.50;;
38557;SDS011;24333;42.626;23.308;2023-06-26T13:21:55;6.78;;;2.90;;
38557;SDS011;24333;42.626;23.308;2023-06-26T13:24:20;5.45;;;2.72;;
38557;SDS011;24333;42.626;23.308;2023-06-26T13:26:53;7.10;;;4.13;;
38557;SDS011;24333;42.626;23.308;2023-06-26T13:29:22;5.78;;;3.00;;
38557;SDS011;24333;42.626;23.308;2023-06-26T13:31:57;6.10;;;3.05;;
38557;SDS011;24333;42.626;23.308;2023-06-26T13:35:24;5.60;;;2.72;;
38557;SDS011;24333;42.626;23.308;2023-06-26T13:37:49;5.63;;;3.20;;
38557;SDS011;24333;42.626;23.308;2023-06-26T13:40:15;4.63;;;2.90;;
38557;SDS011;24333;42.626;23.308;2023-06-26T13:42:40;9.63;;;3.00;;
38557;SDS011;24333;42.626;23.308;2023-06-26T13:45:06;3.50;;;2.28;;
38557;SDS011;24333;42.626;23.308;2023-06-26T13:47:32;4.32;;;2.75;;
38557;SDS011;24333;42.626;23.308;2023-06-26T13:49:59;4.32;;;2.40;;
38557;SDS011;24333;42.626;23.308;2023-06-26T13:52:25;4.72;;;2.60;;
38557;SDS011;24333;42.626;23.308;2023-06-26T13:54:50;4.38;;;2.50;;
38557;SDS011;24333;42.626;23.308;2023-06-26T13:57:16;5.40;;;2.65;;
38557;SDS011;24333;42.626;23.308;2023-06-26T13:59:42;4.20;;;2.30;;
38557;SDS011;24333;42.626;23.308;2023-06-26T14:02:07;3.92;;;2.40;;
38557;SDS011;24333;42.626;23.308;2023-06-26T14:04:33;7.40;;;3.13;;
38557;SDS011;24333;42.626;23.308;2023-06-26T14:07:14;6.93;;;3.40;;
38557;SDS011;24333;42.626;23.308;2023-06-26T14:12:39;4.88;;;2.90;;
38557;SDS011;24333;42.626;23.308;2023-06-26T14:34:46;4.25;;;2.45;;
38557;SDS011;24333;42.626;23.308;2023-06-26T14:37:12;5.40;;;2.65;;
38557;SDS011;24333;42.626;23.308;2023-06-26T14:39:37;6.30;;;3.15;;
38557;SDS011;24333;42.626;23.308;2023-06-26T14:42:03;4.97;;;2.72;;
38557;SDS011;24333;42.626;23.308;2023-06-26T14:44:29;5.10;;;2.53;;
38557;SDS011;24333;42.626;23.308;2023-06-26T14:46:55;5.25;;;2.53;;
38557;SDS011;24333;42.626;23.308;2023-06-26T14:49:20;5.78;;;2.72;;
38557;SDS011;24333;42.626;23.308;2023-06-26T14:51:46;4.82;;;2.60;;
38557;SDS011;24333;42.626;23.308;2023-06-26T14:54:11;7.18;;;2.72;;
38557;SDS011;24333;42.626;23.308;2023-06-26T14:56:36;4.43;;;2.75;;
38557;SDS011;24333;42.626;23.308;2023-06-26T14:59:02;4.20;;;2.63;;
38557;SDS011;24333;42.626;23.308;2023-06-26T15:01:27;6.80;;;2.92;;
38557;SDS011;24333;42.626;23.308;2023-06-26T15:03:53;4.35;;;2.50;;
38557;SDS011;24333;42.626;23.308;2023-06-26T20:35:25;5.72;;;3.40;;
38557;SDS011;24333;42.626;23.308;2023-06-26T20:41:15;5.53;;;3.00;;
38557;SDS011;24333;42.626;23.308;2023-06-26T20:43:52;5.78;;;3.20;;
38557;SDS011;24333;42.626;23.308;2023-06-26T20:46:23;6.40;;;3.38;;
38557;SDS011;24333;42.626;23.308;2023-06-26T22:52:21;4.85;;;2.40;;
38557;SDS011;24333;42.626;23.308;2023-06-26T22:54:47;7.13;;;2.88;;
38557;SDS011;24333;42.626;23.308;2023-06-26T22:57:13;4.55;;;2.70;;
38557;SDS011;24333;42.626;23.308;2023-06-26T22:59:38;6.35;;;3.20;;
38557;SDS011;24333;42.626;23.308;2023-06-26T23:02:04;6.63;;;3.03;;
38557;SDS011;24333;42.626;23.308;2023-06-26T23:09:51;5.25;;;2.65;;
38557;SDS011;24333;42.626;23.308;2023-06-26T23:12:17;7.68;;;2.67;;
38557;SDS011;24333;42.626;23.308;2023-06-26T23:14:43;5.95;;;2.85;;
38557;SDS011;24333;42.626;23.308;2023-06-26T23:17:09;9.25;;;2.97;;
38557;SDS011;24333;42.626;23.308;2023-06-26T23:19:37;6.03;;;2.30;;
